AAY1123 KSRQ-KGSP
Flight info
| Callsign | AAY1123 |
|---|---|
| Flight time | 1h 22m |
| Altitude | 37000 |
| Route | TIDES1 CAMJO TYFTR PROVN MCHLN2 |
| Aircraft | A320/M-SDE3FGHIRWY/LB1 |
Departure
| Time | 2026-04-30 19:49 |
|---|---|
| Airport | Sarasota Bradenton International Airport (KSRQ) |
Arrival
| Time | 2026-04-30 21:11 |
|---|---|
| Airport | Greenville-Spartanburg International Airport (KGSP) |
| Time | Latitude | Longitude | Altitude | Speed | Heading |
|---|---|---|---|---|---|
| 2026-04-30 19:37 | 27.38880 | -82.55310 | 31 ft | 0 kts | 277° |
| 2026-04-30 19:42 | 27.38879 | -82.55305 | 31 ft | 4 kts | 277° |
| 2026-04-30 19:43 | 27.38876 | -82.55277 | 31 ft | 2 kts | 277° |
| 2026-04-30 19:43 | 27.38872 | -82.55252 | 31 ft | 4 kts | 285° |
| 2026-04-30 19:43 | 27.38865 | -82.55228 | 31 ft | 2 kts | 292° |
| 2026-04-30 19:44 | 27.38860 | -82.55213 | 31 ft | 0 kts | 292° |
| 2026-04-30 19:45 | 27.38868 | -82.55215 | 31 ft | 1 kts | 14° |
| 2026-04-30 19:46 | 27.38900 | -82.55189 | 31 ft | 14 kts | 34° |
| 2026-04-30 19:46 | 27.38982 | -82.55121 | 31 ft | 16 kts | 44° |
| 2026-04-30 19:46 | 27.38956 | -82.55014 | 30 ft | 17 kts | 134° |
| 2026-04-30 19:46 | 27.38861 | -82.54907 | 31 ft | 21 kts | 135° |
| 2026-04-30 19:47 | 27.38813 | -82.54792 | 31 ft | 16 kts | 43° |
| 2026-04-30 19:47 | 27.38863 | -82.54748 | 31 ft | 11 kts | 26° |
| 2026-04-30 19:47 | 27.38897 | -82.54775 | 31 ft | 0 kts | 317° |
| 2026-04-30 19:48 | 27.38943 | -82.54823 | 30 ft | 36 kts | 315° |
| 2026-04-30 19:48 | 27.39304 | -82.55238 | 28 ft | 108 kts | 315° |
| 2026-04-30 19:48 | 27.39969 | -82.56002 | 33 ft | 160 kts | 313° |
| 2026-04-30 19:49 | 27.40759 | -82.56892 | 652 ft | 157 kts | 309° |
| 2026-04-30 19:49 | 27.41279 | -82.59135 | 1892 ft | 160 kts | 264° |
| 2026-04-30 19:49 | 27.41174 | -82.60461 | 2318 ft | 180 kts | 265° |
| 2026-04-30 19:50 | 27.41077 | -82.61962 | 2555 ft | 205 kts | 266° |
| 2026-04-30 19:50 | 27.40988 | -82.63623 | 2579 ft | 216 kts | 266° |
| 2026-04-30 19:50 | 27.40917 | -82.65318 | 2619 ft | 224 kts | 268° |
| 2026-04-30 19:50 | 27.40855 | -82.67141 | 3199 ft | 236 kts | 267° |
| 2026-04-30 19:51 | 27.40712 | -82.68917 | 4353 ft | 225 kts | 257° |
| 2026-04-30 19:51 | 27.40199 | -82.70653 | 4916 ft | 245 kts | 250° |
| 2026-04-30 19:51 | 27.39598 | -82.72510 | 5542 ft | 256 kts | 256° |
| 2026-04-30 19:51 | 27.39577 | -82.74520 | 6249 ft | 265 kts | 287° |
| 2026-04-30 19:52 | 27.40586 | -82.76253 | 7013 ft | 271 kts | 319° |
| 2026-04-30 19:52 | 27.42263 | -82.77262 | 7856 ft | 275 kts | 334° |
| 2026-04-30 19:52 | 27.44030 | -82.78105 | 8710 ft | 277 kts | 334° |
| 2026-04-30 19:52 | 27.45829 | -82.78916 | 9572 ft | 280 kts | 338° |
| 2026-04-30 19:53 | 27.47768 | -82.79330 | 10332 ft | 289 kts | 352° |
| 2026-04-30 19:53 | 27.49866 | -82.79310 | 10619 ft | 314 kts | 357° |
| 2026-04-30 19:53 | 27.52126 | -82.79230 | 10879 ft | 334 kts | 358° |
| 2026-04-30 19:53 | 27.54477 | -82.79135 | 11463 ft | 341 kts | 358° |
| 2026-04-30 19:54 | 27.56868 | -82.79036 | 12141 ft | 346 kts | 358° |
| 2026-04-30 19:54 | 27.59278 | -82.78944 | 12841 ft | 349 kts | 357° |
| 2026-04-30 19:54 | 27.61720 | -82.78895 | 13529 ft | 352 kts | 356° |
| 2026-04-30 19:54 | 27.64181 | -82.78881 | 14158 ft | 355 kts | 356° |
| 2026-04-30 19:55 | 27.66661 | -82.78881 | 14785 ft | 357 kts | 355° |
| 2026-04-30 19:55 | 27.69154 | -82.78883 | 15418 ft | 360 kts | 355° |
| 2026-04-30 19:55 | 27.71664 | -82.78881 | 16064 ft | 362 kts | 355° |
| 2026-04-30 19:55 | 27.74187 | -82.78874 | 16692 ft | 364 kts | 355° |
| 2026-04-30 19:56 | 27.76731 | -82.78861 | 17321 ft | 366 kts | 355° |
| 2026-04-30 19:56 | 27.79293 | -82.78845 | 17938 ft | 369 kts | 355° |
| 2026-04-30 19:56 | 27.81868 | -82.78825 | 18510 ft | 371 kts | 355° |
| 2026-04-30 19:56 | 27.84461 | -82.78804 | 19023 ft | 374 kts | 355° |
| 2026-04-30 19:57 | 27.87072 | -82.78785 | 19529 ft | 377 kts | 355° |
| 2026-04-30 19:57 | 27.89706 | -82.78768 | 20008 ft | 380 kts | 355° |
| 2026-04-30 19:57 | 27.92365 | -82.78754 | 20481 ft | 384 kts | 355° |
| 2026-04-30 19:57 | 27.95044 | -82.78738 | 20951 ft | 387 kts | 355° |
| 2026-04-30 19:58 | 27.97743 | -82.78718 | 21413 ft | 390 kts | 355° |
| 2026-04-30 19:58 | 28.00466 | -82.78698 | 21869 ft | 392 kts | 355° |
| 2026-04-30 19:58 | 28.03202 | -82.78681 | 22312 ft | 395 kts | 355° |
| 2026-04-30 19:58 | 28.05965 | -82.78667 | 22743 ft | 398 kts | 355° |
| 2026-04-30 19:59 | 28.08745 | -82.78654 | 23166 ft | 401 kts | 355° |
| 2026-04-30 19:59 | 28.11507 | -82.78641 | 23573 ft | 403 kts | 355° |
| 2026-04-30 19:59 | 28.17157 | -82.78605 | 24265 ft | 409 kts | 355° |
| 2026-04-30 20:00 | 28.20009 | -82.78583 | 24599 ft | 412 kts | 354° |
| 2026-04-30 20:00 | 28.22891 | -82.78562 | 24921 ft | 415 kts | 354° |
| 2026-04-30 20:00 | 28.25790 | -82.78542 | 25268 ft | 418 kts | 354° |
| 2026-04-30 20:00 | 28.28705 | -82.78524 | 25620 ft | 420 kts | 354° |
| 2026-04-30 20:01 | 28.34571 | -82.78490 | 26312 ft | 424 kts | 354° |
| 2026-04-30 20:01 | 28.37526 | -82.78473 | 26649 ft | 425 kts | 355° |
| 2026-04-30 20:01 | 28.40491 | -82.78456 | 26992 ft | 427 kts | 355° |
| 2026-04-30 20:02 | 28.46483 | -82.78135 | 27665 ft | 434 kts | 359° |
| 2026-04-30 20:02 | 28.49495 | -82.77834 | 28076 ft | 436 kts | 359° |
| 2026-04-30 20:03 | 28.55582 | -82.77166 | 28661 ft | 442 kts | 359° |
| 2026-04-30 20:03 | 28.58651 | -82.76849 | 28974 ft | 443 kts | 359° |
| 2026-04-30 20:03 | 28.61732 | -82.76555 | 29286 ft | 445 kts | 359° |
| 2026-04-30 20:03 | 28.64824 | -82.76277 | 29595 ft | 447 kts | 358° |
| 2026-04-30 20:04 | 28.67933 | -82.76009 | 29894 ft | 448 kts | 358° |
| 2026-04-30 20:04 | 28.71044 | -82.75741 | 30159 ft | 450 kts | 358° |
| 2026-04-30 20:04 | 28.74175 | -82.75465 | 30411 ft | 452 kts | 359° |
| 2026-04-30 20:05 | 28.80457 | -82.74894 | 30974 ft | 454 kts | 358° |
| 2026-04-30 20:05 | 28.83605 | -82.74608 | 31271 ft | 454 kts | 358° |
| 2026-04-30 20:05 | 28.89830 | -82.74041 | 32038 ft | 450 kts | 358° |
| 2026-04-30 20:06 | 28.92942 | -82.73757 | 32417 ft | 448 kts | 358° |
| 2026-04-30 20:06 | 28.96043 | -82.73476 | 32792 ft | 446 kts | 358° |
| 2026-04-30 20:06 | 28.99129 | -82.73199 | 33166 ft | 444 kts | 358° |
| 2026-04-30 20:06 | 29.02208 | -82.72923 | 33537 ft | 443 kts | 358° |
| 2026-04-30 20:07 | 29.05270 | -82.72647 | 33924 ft | 441 kts | 358° |
| 2026-04-30 20:07 | 29.08322 | -82.72367 | 34274 ft | 439 kts | 358° |
| 2026-04-30 20:07 | 29.14370 | -82.71814 | 34990 ft | 434 kts | 358° |
| 2026-04-30 20:08 | 29.17377 | -82.71540 | 35318 ft | 431 kts | 358° |
| 2026-04-30 20:08 | 29.20360 | -82.71274 | 35621 ft | 429 kts | 358° |
| 2026-04-30 20:08 | 29.23332 | -82.71008 | 35919 ft | 428 kts | 358° |
| 2026-04-30 20:08 | 29.26292 | -82.70739 | 36209 ft | 426 kts | 357° |
| 2026-04-30 20:09 | 29.29241 | -82.70469 | 36483 ft | 424 kts | 357° |
| 2026-04-30 20:09 | 29.32182 | -82.70200 | 36752 ft | 423 kts | 357° |
| 2026-04-30 20:09 | 29.38036 | -82.69663 | 36935 ft | 421 kts | 356° |
| 2026-04-30 20:10 | 29.46755 | -82.69119 | 36932 ft | 415 kts | 352° |
| 2026-04-30 20:11 | 29.55403 | -82.69208 | 36932 ft | 414 kts | 352° |
| 2026-04-30 20:11 | 29.61173 | -82.69224 | 36931 ft | 415 kts | 352° |
| 2026-04-30 20:12 | 29.69845 | -82.69148 | 36949 ft | 415 kts | 352° |
| 2026-04-30 20:13 | 29.75624 | -82.69104 | 36947 ft | 415 kts | 352° |
| 2026-04-30 20:13 | 29.81365 | -82.69073 | 36946 ft | 415 kts | 352° |
| 2026-04-30 20:14 | 29.87147 | -82.69044 | 36948 ft | 415 kts | 352° |
| 2026-04-30 20:14 | 29.92937 | -82.69005 | 36964 ft | 415 kts | 351° |
| 2026-04-30 20:15 | 29.98714 | -82.68967 | 36950 ft | 415 kts | 351° |
| 2026-04-30 20:15 | 30.04490 | -82.68931 | 36939 ft | 415 kts | 351° |
| 2026-04-30 20:16 | 30.10258 | -82.68896 | 36932 ft | 415 kts | 351° |
| 2026-04-30 20:16 | 30.16025 | -82.68855 | 36924 ft | 415 kts | 351° |
| 2026-04-30 20:17 | 30.21798 | -82.68820 | 36927 ft | 415 kts | 351° |
| 2026-04-30 20:17 | 30.27567 | -82.68785 | 36982 ft | 415 kts | 351° |
| 2026-04-30 20:18 | 30.33338 | -82.68752 | 36991 ft | 415 kts | 351° |
| 2026-04-30 20:18 | 30.39109 | -82.68711 | 36990 ft | 415 kts | 351° |
| 2026-04-30 20:19 | 30.44888 | -82.68675 | 37001 ft | 415 kts | 350° |
| 2026-04-30 20:19 | 30.50636 | -82.68545 | 36999 ft | 422 kts | 357° |
| 2026-04-30 20:19 | 30.53561 | -82.67883 | 36996 ft | 433 kts | 4° |
| 2026-04-30 20:20 | 30.56485 | -82.67020 | 36997 ft | 433 kts | 4° |
| 2026-04-30 20:20 | 30.62330 | -82.65291 | 36997 ft | 434 kts | 4° |
| 2026-04-30 20:21 | 30.68177 | -82.63567 | 36994 ft | 434 kts | 4° |
| 2026-04-30 20:21 | 30.73039 | -82.62139 | 36995 ft | 434 kts | 4° |
| 2026-04-30 20:22 | 30.78897 | -82.60415 | 36993 ft | 434 kts | 4° |
| 2026-04-30 20:22 | 30.84755 | -82.58688 | 36984 ft | 435 kts | 3° |
| 2026-04-30 20:23 | 30.90624 | -82.56954 | 36966 ft | 435 kts | 4° |
| 2026-04-30 20:23 | 30.96495 | -82.55214 | 36941 ft | 435 kts | 3° |
| 2026-04-30 20:24 | 31.02372 | -82.53485 | 36935 ft | 436 kts | 3° |
| 2026-04-30 20:24 | 31.08243 | -82.51751 | 36932 ft | 434 kts | 3° |
| 2026-04-30 20:25 | 31.17038 | -82.49144 | 36891 ft | 435 kts | 3° |
| 2026-04-30 20:26 | 31.25847 | -82.46517 | 36889 ft | 436 kts | 3° |
| 2026-04-30 20:26 | 31.34663 | -82.43890 | 36882 ft | 434 kts | 2° |
| 2026-04-30 20:27 | 31.46384 | -82.40394 | 36888 ft | 435 kts | 2° |
| 2026-04-30 20:28 | 31.58134 | -82.36883 | 36928 ft | 436 kts | 2° |
| 2026-04-30 20:30 | 31.72804 | -82.32477 | 36894 ft | 437 kts | 2° |
| 2026-04-30 20:31 | 31.90421 | -82.27156 | 36862 ft | 431 kts | 1° |
| 2026-04-30 20:32 | 32.04990 | -82.22766 | 36873 ft | 433 kts | 1° |
| 2026-04-30 20:33 | 32.13754 | -82.20100 | 36898 ft | 433 kts | 1° |
| 2026-04-30 20:34 | 32.22486 | -82.17447 | 36895 ft | 432 kts | 1° |
| 2026-04-30 20:35 | 32.31219 | -82.14792 | 36891 ft | 432 kts | 1° |
| 2026-04-30 20:35 | 32.39947 | -82.12170 | 36890 ft | 423 kts | 357° |
| 2026-04-30 20:36 | 32.42763 | -82.11746 | 36876 ft | 407 kts | 352° |
| 2026-04-30 20:36 | 32.45580 | -82.11452 | 36869 ft | 406 kts | 352° |
| 2026-04-30 20:37 | 32.54044 | -82.10599 | 36871 ft | 408 kts | 352° |
| 2026-04-30 20:37 | 32.59722 | -82.10023 | 36878 ft | 409 kts | 352° |
| 2026-04-30 20:38 | 32.65398 | -82.09444 | 36921 ft | 409 kts | 352° |
| 2026-04-30 20:38 | 32.71038 | -82.08855 | 36886 ft | 406 kts | 352° |
| 2026-04-30 20:39 | 32.79486 | -82.07984 | 36889 ft | 407 kts | 352° |
| 2026-04-30 20:40 | 32.87949 | -82.07108 | 36892 ft | 407 kts | 352° |
| 2026-04-30 20:40 | 32.93600 | -82.06525 | 36914 ft | 408 kts | 351° |
| 2026-04-30 20:41 | 33.02069 | -82.05663 | 36892 ft | 410 kts | 352° |
| 2026-04-30 20:41 | 33.07758 | -82.05059 | 36888 ft | 411 kts | 352° |
| 2026-04-30 20:42 | 33.13458 | -82.04456 | 36887 ft | 411 kts | 352° |
| 2026-04-30 20:43 | 33.22017 | -82.03570 | 36894 ft | 412 kts | 352° |
| 2026-04-30 20:43 | 33.27728 | -82.02973 | 36893 ft | 412 kts | 352° |
| 2026-04-30 20:44 | 33.36297 | -82.02081 | 36895 ft | 412 kts | 351° |
| 2026-04-30 20:45 | 33.47728 | -82.00889 | 36918 ft | 414 kts | 351° |
| 2026-04-30 20:45 | 33.53474 | -82.00281 | 36912 ft | 415 kts | 351° |
| 2026-04-30 20:46 | 33.64984 | -81.99057 | 36909 ft | 415 kts | 351° |
| 2026-04-30 20:47 | 33.73612 | -81.98150 | 36907 ft | 413 kts | 351° |
| 2026-04-30 20:48 | 33.82189 | -81.97248 | 36898 ft | 413 kts | 351° |
| 2026-04-30 20:48 | 33.87881 | -81.96663 | 36901 ft | 411 kts | 349° |
| 2026-04-30 20:49 | 33.93483 | -81.96788 | 36904 ft | 402 kts | 345° |
| 2026-04-30 20:50 | 34.01936 | -81.97107 | 35448 ft | 414 kts | 345° |
| 2026-04-30 20:50 | 34.04834 | -81.97221 | 34522 ft | 420 kts | 345° |
| 2026-04-30 20:50 | 34.07747 | -81.97327 | 33376 ft | 419 kts | 345° |
| 2026-04-30 20:50 | 34.10647 | -81.97420 | 32511 ft | 410 kts | 345° |
| 2026-04-30 20:51 | 34.13420 | -81.97484 | 32224 ft | 389 kts | 344° |
| 2026-04-30 20:51 | 34.18650 | -81.97625 | 31230 ft | 371 kts | 343° |
| 2026-04-30 20:51 | 34.21230 | -81.97733 | 30747 ft | 371 kts | 342° |
| 2026-04-30 20:52 | 34.23806 | -81.97846 | 30264 ft | 370 kts | 342° |
| 2026-04-30 20:52 | 34.26385 | -81.97954 | 29647 ft | 370 kts | 342° |
| 2026-04-30 20:52 | 34.31513 | -81.98139 | 28510 ft | 367 kts | 343° |
| 2026-04-30 20:53 | 34.34060 | -81.98221 | 27969 ft | 365 kts | 343° |
| 2026-04-30 20:53 | 34.36589 | -81.98302 | 27421 ft | 362 kts | 344° |
| 2026-04-30 20:53 | 34.39082 | -81.98380 | 26891 ft | 364 kts | 345° |
| 2026-04-30 20:54 | 34.44125 | -81.98538 | 25850 ft | 360 kts | 345° |
| 2026-04-30 20:54 | 34.46657 | -81.98660 | 25337 ft | 358 kts | 345° |
| 2026-04-30 20:54 | 34.49111 | -81.98811 | 24859 ft | 357 kts | 344° |
| 2026-04-30 20:55 | 34.54049 | -81.99169 | 23877 ft | 355 kts | 345° |
| 2026-04-30 20:55 | 34.56516 | -81.99356 | 23365 ft | 355 kts | 345° |
| 2026-04-30 20:55 | 34.58972 | -81.99536 | 22826 ft | 353 kts | 346° |
| 2026-04-30 20:56 | 34.63856 | -81.99873 | 21836 ft | 349 kts | 346° |
| 2026-04-30 20:56 | 34.66276 | -82.00041 | 21341 ft | 348 kts | 347° |
| 2026-04-30 20:56 | 34.71089 | -82.00378 | 20337 ft | 346 kts | 347° |
| 2026-04-30 20:57 | 34.73504 | -82.00546 | 19863 ft | 346 kts | 348° |
| 2026-04-30 20:57 | 34.75916 | -82.00714 | 19334 ft | 348 kts | 348° |
| 2026-04-30 20:57 | 34.78333 | -82.00884 | 18836 ft | 348 kts | 348° |
| 2026-04-30 20:58 | 34.82590 | -82.02836 | 17816 ft | 321 kts | 311° |
| 2026-04-30 20:58 | 34.83827 | -82.05030 | 17262 ft | 313 kts | 289° |
| 2026-04-30 20:58 | 34.84202 | -82.07608 | 16720 ft | 312 kts | 268° |
| 2026-04-30 20:58 | 34.83660 | -82.10164 | 16195 ft | 318 kts | 246° |
| 2026-04-30 20:59 | 34.80829 | -82.14414 | 15142 ft | 326 kts | 233° |
| 2026-04-30 20:59 | 34.79302 | -82.16469 | 14631 ft | 327 kts | 233° |
| 2026-04-30 21:00 | 34.76333 | -82.20492 | 13324 ft | 315 kts | 233° |
| 2026-04-30 21:00 | 34.73013 | -82.23876 | 11917 ft | 312 kts | 217° |
| 2026-04-30 21:01 | 34.69351 | -82.26642 | 10582 ft | 308 kts | 217° |
| 2026-04-30 21:01 | 34.67545 | -82.28016 | 9945 ft | 304 kts | 217° |
| 2026-04-30 21:01 | 34.64012 | -82.30736 | 8554 ft | 296 kts | 217° |
| 2026-04-30 21:02 | 34.62301 | -82.32083 | 7874 ft | 291 kts | 217° |
| 2026-04-30 21:02 | 34.60617 | -82.33428 | 7203 ft | 288 kts | 217° |
| 2026-04-30 21:02 | 34.58963 | -82.34777 | 6557 ft | 284 kts | 218° |
| 2026-04-30 21:02 | 34.57594 | -82.36433 | 5882 ft | 277 kts | 239° |
| 2026-04-30 21:03 | 34.56842 | -82.38549 | 5194 ft | 271 kts | 260° |
| 2026-04-30 21:03 | 34.56833 | -82.40792 | 4713 ft | 259 kts | 283° |
| 2026-04-30 21:03 | 34.57442 | -82.42731 | 4597 ft | 235 kts | 302° |
| 2026-04-30 21:03 | 34.58436 | -82.44189 | 4599 ft | 220 kts | 319° |
| 2026-04-30 21:04 | 34.59727 | -82.45178 | 4602 ft | 221 kts | 337° |
| 2026-04-30 21:04 | 34.61210 | -82.45625 | 4609 ft | 221 kts | 354° |
| 2026-04-30 21:04 | 34.64170 | -82.44763 | 4606 ft | 225 kts | 31° |
| 2026-04-30 21:05 | 34.65352 | -82.43545 | 4607 ft | 227 kts | 43° |
| 2026-04-30 21:05 | 34.66474 | -82.42192 | 4605 ft | 227 kts | 43° |
| 2026-04-30 21:05 | 34.67600 | -82.40848 | 4600 ft | 227 kts | 43° |
| 2026-04-30 21:05 | 34.68726 | -82.39508 | 4604 ft | 227 kts | 43° |
| 2026-04-30 21:06 | 34.69850 | -82.38170 | 4606 ft | 226 kts | 43° |
| 2026-04-30 21:06 | 34.70975 | -82.36832 | 4612 ft | 226 kts | 43° |
| 2026-04-30 21:06 | 34.72098 | -82.35493 | 4599 ft | 226 kts | 43° |
| 2026-04-30 21:06 | 34.73324 | -82.34279 | 4345 ft | 226 kts | 32° |
| 2026-04-30 21:07 | 34.74644 | -82.33258 | 4056 ft | 224 kts | 31° |
| 2026-04-30 21:07 | 34.75958 | -82.32267 | 3764 ft | 218 kts | 30° |
| 2026-04-30 21:07 | 34.77211 | -82.31316 | 3483 ft | 208 kts | 31° |
| 2026-04-30 21:07 | 34.78417 | -82.30397 | 3209 ft | 202 kts | 31° |
| 2026-04-30 21:08 | 34.79587 | -82.29505 | 2973 ft | 192 kts | 31° |
| 2026-04-30 21:08 | 34.80687 | -82.28667 | 2712 ft | 182 kts | 31° |
| 2026-04-30 21:08 | 34.81734 | -82.27869 | 2468 ft | 174 kts | 32° |
| 2026-04-30 21:08 | 34.82396 | -82.27364 | 2327 ft | 166 kts | 31° |
| 2026-04-30 21:09 | 34.83357 | -82.26631 | 2113 ft | 159 kts | 31° |
| 2026-04-30 21:09 | 34.84266 | -82.25936 | 1914 ft | 151 kts | 31° |
| 2026-04-30 21:09 | 34.85143 | -82.25267 | 1713 ft | 147 kts | 31° |
| 2026-04-30 21:09 | 34.86001 | -82.24613 | 1515 ft | 144 kts | 32° |
| 2026-04-30 21:10 | 34.86839 | -82.23978 | 1330 ft | 140 kts | 33° |
| 2026-04-30 21:10 | 34.87663 | -82.23343 | 1139 ft | 141 kts | 32° |
| 2026-04-30 21:10 | 34.88473 | -82.22727 | 970 ft | 135 kts | 33° |
| 2026-04-30 21:10 | 34.89160 | -82.22201 | 958 ft | 93 kts | 32° |
| 2026-04-30 21:11 | 34.89570 | -82.21884 | 962 ft | 54 kts | 32° |
| 2026-04-30 21:11 | 34.89862 | -82.21660 | 955 ft | 38 kts | 33° |
| 2026-04-30 21:11 | 34.90011 | -82.21445 | 959 ft | 31 kts | 60° |
| 2026-04-30 21:11 | 34.90042 | -82.21303 | 959 ft | 9 kts | 157° |
| 2026-04-30 21:12 | 34.89986 | -82.21329 | 960 ft | 11 kts | 211° |
| 2026-04-30 21:12 | 34.89921 | -82.21379 | 958 ft | 10 kts | 212° |
| 2026-04-30 21:12 | 34.89864 | -82.21422 | 959 ft | 9 kts | 212° |
| 2026-04-30 21:12 | 34.89813 | -82.21461 | 958 ft | 8 kts | 212° |
| 2026-04-30 21:13 | 34.89738 | -82.21518 | 958 ft | 17 kts | 212° |
| 2026-04-30 21:13 | 34.89638 | -82.21596 | 959 ft | 16 kts | 212° |
| 2026-04-30 21:13 | 34.89546 | -82.21666 | 958 ft | 15 kts | 212° |
| 2026-04-30 21:13 | 34.89463 | -82.21728 | 959 ft | 12 kts | 211° |
| 2026-04-30 21:14 | 34.89395 | -82.21726 | 958 ft | 8 kts | 135° |
| 2026-04-30 21:14 | 34.89351 | -82.21713 | 960 ft | 7 kts | 201° |
| 2026-04-30 21:14 | 34.89314 | -82.21738 | 959 ft | 5 kts | 201° |
| 2026-04-30 21:14 | 34.89289 | -82.21721 | 961 ft | 4 kts | 119° |
| 2026-04-30 21:15 | 34.89276 | -82.21696 | 957 ft | 3 kts | 122° |
| 2026-04-30 21:15 | 34.89267 | -82.21678 | 958 ft | 2 kts | 122° |
| 2026-04-30 21:15 | 34.89265 | -82.21674 | 960 ft | 0 kts | 122° |